首页
METAR-TAF:

METAR-TAF

机场 :

Orcas Island Airport

Eastsound, 华盛顿, 美国

纬度: 48-42-29N, 经度: 122-54-37W, 海拔: 9米

当前天气观测

该预报发布于14分钟前的10:55 UTC
风速9节,风向,有时为15节阵风
温度 11°C
湿度 87%
气压 1013 hPa
能見度: 16.1公里
阴天层高于11000英尺

METAR: KORS 151055Z AUTO 19009G15KT 10SM OVC110 11/09 A2991 RMK AO2

时间: 03:09 (11:09 UTC)


TAF: 丢失

超过4000个机场的气象观测和天气预报(METAR&TAF报告)。

可查询的气象台以黄色和红色小点在地图上表示。

将鼠标移到小点上方,可查看气象台名称。

然后点击查看天气观测和预报。

如需切换地图:点击带黑十字的绿色按钮放大地图;点击带横线的绿色按钮缩小地图;或者点击绿色箭头查看邻近地区的地图。


METAR-TAF: